createdAt,value
2023-02-14T09:54:40.230Z,97951.20
2023-02-14T09:57:21.322Z,97955.20
2023-02-14T10:00:23.521Z,97945.60
2023-02-14T10:03:31.627Z,97948.60
2023-02-14T12:13:57.641Z,97855.00
2023-02-14T12:16:34.862Z,97865.80
2023-02-14T12:19:04.272Z,97841.60
2023-02-14T12:21:43.432Z,97839.40
2023-02-14T12:24:29.642Z,97827.00
2023-02-14T12:27:00.725Z,97834.20
2023-02-14T12:29:41.150Z,97838.60
2023-02-14T12:32:22.718Z,97847.40
2023-02-14T12:34:50.904Z,97838.00
2023-02-14T12:37:34.215Z,97839.80
2023-02-14T12:40:21.718Z,97850.40
2023-02-14T12:43:11.828Z,97825.80
2023-02-14T12:52:02.871Z,97850.20
2023-02-14T12:57:48.516Z,97848.00
2023-02-14T13:00:23.038Z,97849.20
2023-02-14T13:03:03.108Z,97848.20
2023-02-14T13:05:54.045Z,97851.00
2023-02-14T13:08:30.863Z,97849.20
2023-02-14T13:11:14.543Z,97861.60
2023-02-14T13:13:52.307Z,97857.20
2023-02-14T13:16:45.051Z,97847.80
2023-02-14T13:19:21.702Z,97849.40
2023-02-14T13:21:49.748Z,97854.80
2023-02-14T13:24:25.658Z,97862.80
2023-02-14T13:26:56.827Z,97862.00
2023-02-14T13:29:30.433Z,97869.80
2023-02-14T13:32:01.433Z,97866.40
2023-02-14T13:34:38.833Z,97870.20
2023-02-14T13:37:08.963Z,97877.00
2023-02-14T13:39:39.606Z,97869.80
2023-02-14T13:42:08.155Z,97868.40
2023-02-14T13:44:39.008Z,97869.60
2023-02-14T13:47:07.168Z,97868.40
2023-02-14T13:49:35.300Z,97860.80
2023-02-14T13:52:04.826Z,97861.40
2023-02-14T13:54:38.186Z,97865.80
2023-02-14T13:57:29.288Z,97867.20
2023-02-14T14:00:16.498Z,97863.60
2023-02-14T14:02:48.810Z,97864.60
2023-02-14T14:05:29.797Z,97862.60
2023-02-14T14:08:17.811Z,97861.80
2023-02-14T14:11:11.280Z,97857.60
2023-02-14T14:13:42.642Z,97859.80
2023-02-14T14:16:28.970Z,97863.40
2023-02-14T14:19:09.430Z,97853.60
2023-02-14T14:21:41.499Z,97847.20
2023-02-14T14:24:25.516Z,97844.00
2023-02-14T14:27:05.574Z,97847.40
2023-02-14T14:29:55.883Z,97845.40
2023-02-14T14:32:32.320Z,97840.40
2023-02-14T14:35:08.704Z,97835.40
2023-02-14T14:37:45.497Z,97838.80
2023-02-14T14:40:39.890Z,97836.80
2023-02-14T14:43:18.026Z,97837.40
2023-02-14T14:45:46.684Z,97828.40
2023-02-14T14:48:18.448Z,97831.60
2023-02-14T14:50:46.586Z,97832.40
2023-02-14T14:53:21.356Z,97833.00
2023-02-14T14:55:52.192Z,97827.40
2023-02-14T14:58:40.219Z,97825.40
2023-02-14T15:01:13.275Z,97830.00
2023-02-14T15:03:41.443Z,97831.20
2023-02-14T15:06:16.164Z,97830.60
2023-02-14T15:08:44.544Z,97828.20
2023-02-14T15:11:41.921Z,97828.00
2023-02-14T15:14:20.191Z,97831.60
2023-02-14T15:16:53.102Z,97829.60
2023-02-14T15:19:51.973Z,97832.40
2023-02-14T15:22:29.915Z,97829.00
2023-02-14T15:24:58.001Z,97829.80
2023-02-14T15:27:26.813Z,97831.40
2023-02-14T15:29:58.054Z,97835.20
2023-02-14T15:32:27.873Z,97841.20
2023-02-14T15:34:55.926Z,97839.20
2023-02-14T15:37:24.107Z,97841.40
2023-02-14T15:39:55.766Z,97845.80
2023-02-14T15:42:27.701Z,97842.00
2023-02-14T15:45:29.204Z,97846.00
2023-02-14T15:47:59.380Z,97851.80
2023-02-14T15:50:42.336Z,97852.80
2023-02-14T15:53:19.591Z,97856.20
2023-02-14T15:55:49.842Z,97865.80
2023-02-14T15:58:22.962Z,97863.00
2023-02-14T16:00:51.123Z,97866.20
2023-02-14T16:03:24.724Z,97873.00
2023-02-14T16:05:54.819Z,97869.40
2023-02-14T16:08:34.218Z,97865.00
2023-02-14T16:11:08.924Z,97874.60
2023-02-14T16:13:37.737Z,97873.00
2023-02-14T16:16:07.220Z,97871.20
2023-02-14T16:18:40.123Z,97877.60
2023-02-14T16:21:28.012Z,97875.20
2023-02-14T16:24:10.917Z,97875.40
2023-02-14T16:26:43.587Z,97877.60
2023-02-14T16:29:13.252Z,97877.20
2023-02-14T16:34:40.288Z,97877.40
2023-02-14T16:37:09.868Z,97878.00
2023-02-14T16:39:38.023Z,97880.40
2023-02-14T16:42:06.268Z,97884.00
2023-02-14T16:44:34.219Z,97886.00
2023-02-14T16:47:02.341Z,97884.00
2023-02-14T16:49:30.404Z,97881.20
2023-02-14T16:51:58.388Z,97881.20
2023-02-14T16:54:28.897Z,97875.00
2023-02-14T16:57:02.013Z,97875.80
2023-02-14T16:59:30.546Z,97878.40
2023-02-14T17:01:58.607Z,97879.00
2023-02-14T17:04:26.643Z,97879.60
2023-02-14T17:06:57.253Z,97878.40
2023-02-14T17:09:28.256Z,97874.60
2023-02-14T17:11:57.680Z,97871.60
2023-02-14T17:14:28.608Z,97879.00
2023-02-14T17:16:56.856Z,97877.20
2023-02-14T17:19:25.020Z,97886.20
2023-02-14T17:21:53.038Z,97886.80
2023-02-14T17:24:21.206Z,97887.20
2023-02-14T17:26:49.293Z,97885.20
2023-02-14T17:29:17.388Z,97889.60
2023-02-14T17:31:45.455Z,97882.80
2023-02-14T17:34:13.770Z,97886.20
2023-02-14T17:36:41.902Z,97887.60
2023-02-14T17:39:09.987Z,97888.40
2023-02-14T17:41:38.122Z,97894.60
2023-02-14T17:44:07.332Z,97886.00
2023-02-14T17:46:35.635Z,97888.40
2023-02-14T17:49:03.962Z,97891.20
2023-02-14T17:51:31.966Z,97893.80
2023-02-14T17:54:00.234Z,97894.40
2023-02-14T17:56:28.412Z,97890.20
2023-02-14T17:58:56.518Z,97881.40
2023-02-14T18:01:26.476Z,97889.00
2023-02-14T18:03:54.937Z,97892.20
2023-02-14T18:06:22.983Z,97883.40
2023-02-14T18:08:53.199Z,97890.20
2023-02-14T18:11:21.457Z,97888.20
2023-02-14T18:13:50.227Z,97887.40
2023-02-14T18:16:18.658Z,97890.60
2023-02-14T18:18:46.917Z,97890.60
2023-02-14T18:21:16.135Z,97891.60
2023-02-14T18:23:44.128Z,97895.40
2023-02-14T18:26:13.459Z,97897.60
2023-02-14T18:28:41.617Z,97897.20
2023-02-14T18:31:17.013Z,97888.40
2023-02-14T18:33:46.081Z,97886.60
2023-02-14T18:36:15.854Z,97881.60
2023-02-14T18:38:45.551Z,97886.60
2023-02-14T18:41:15.934Z,97884.80
2023-02-14T18:43:44.785Z,97884.20
2023-02-14T18:46:15.039Z,97880.20
2023-02-14T18:48:43.124Z,97879.80
2023-02-14T18:51:30.722Z,97878.40
2023-02-14T18:53:59.782Z,97879.80
2023-02-14T18:56:29.504Z,97881.00
2023-02-14T18:58:59.562Z,97886.20
2023-02-14T19:01:29.596Z,97888.60
2023-02-14T19:04:03.103Z,97890.60
2023-02-14T19:06:31.263Z,97894.60
2023-02-14T19:08:59.636Z,97895.20
2023-02-14T19:11:31.466Z,97893.40
2023-02-14T19:14:00.541Z,97893.80
2023-02-14T19:16:34.527Z,97899.80
2023-02-14T19:19:02.982Z,97898.60
2023-02-14T19:21:33.771Z,97898.20
2023-02-14T19:24:03.208Z,97895.80
2023-02-14T19:26:37.250Z,97897.20
2023-02-14T19:29:06.938Z,97894.40
2023-02-14T19:31:36.665Z,97905.60
2023-02-14T19:34:06.259Z,97900.40
2023-02-14T19:36:36.444Z,97899.20
2023-02-14T19:39:04.912Z,97907.00
2023-02-14T19:41:34.682Z,97906.00
2023-02-14T19:44:04.848Z,97906.60
2023-02-14T19:46:33.239Z,97902.40
2023-02-14T19:49:01.488Z,97901.40
2023-02-14T19:51:34.223Z,97902.80
2023-02-14T19:54:05.784Z,97903.20
2023-02-14T19:56:36.517Z,97906.20
2023-02-14T19:59:09.075Z,97902.40
2023-02-14T20:01:42.118Z,97907.80
2023-02-14T20:04:13.789Z,97905.60
2023-02-14T20:06:42.395Z,97908.60
2023-02-14T20:09:11.282Z,97902.00
2023-02-14T20:11:46.480Z,97901.00
2023-02-14T20:14:14.639Z,97901.60
2023-02-14T20:16:42.786Z,97902.40
2023-02-14T20:19:16.637Z,97907.00
2023-02-14T20:21:46.260Z,97906.40
2023-02-14T20:24:32.716Z,97908.40
2023-02-14T20:27:02.431Z,97910.20
2023-02-14T20:29:30.530Z,97907.40
2023-02-14T20:32:00.084Z,97907.40
2023-02-14T20:34:29.264Z,97910.00
2023-02-14T20:36:59.282Z,97913.80
2023-02-14T20:39:29.183Z,97921.40
2023-02-14T20:41:57.240Z,97912.40
2023-02-14T20:44:25.181Z,97921.00
2023-02-14T20:46:54.300Z,97927.20
2023-02-14T20:49:25.480Z,97932.40
2023-02-14T20:51:54.045Z,97922.20
2023-02-14T20:54:23.618Z,97921.20
2023-02-14T20:56:51.716Z,97917.00
2023-02-14T20:59:26.971Z,97923.20
2023-02-14T21:01:55.403Z,97917.40
2023-02-14T21:04:23.493Z,97919.00
2023-02-14T21:06:52.097Z,97917.20
2023-02-14T21:09:21.249Z,97917.20
2023-02-14T21:11:50.345Z,97917.40
2023-02-14T21:14:18.450Z,97910.40
2023-02-14T21:16:46.481Z,97907.40
2023-02-14T21:19:14.632Z,97904.40
2023-02-14T21:21:42.629Z,97914.20
2023-02-14T21:24:12.394Z,97907.40
2023-02-14T21:26:41.466Z,97909.00
2023-02-14T21:29:09.572Z,97907.00
2023-02-14T21:31:37.726Z,97911.20
2023-02-14T21:34:05.824Z,97912.40
2023-02-14T21:36:35.875Z,97912.20
2023-02-14T21:39:04.515Z,97909.60
2023-02-14T21:41:32.721Z,97915.00
2023-02-14T21:44:01.859Z,97907.80
2023-02-14T21:46:36.056Z,97906.00
2023-02-14T21:49:23.854Z,97908.80
2023-02-14T21:51:52.205Z,97911.00
2023-02-14T21:54:20.382Z,97899.80
2023-02-14T21:56:50.812Z,97905.20
2023-02-14T21:59:18.946Z,97905.80
2023-02-14T22:02:02.927Z,97902.20
2023-02-14T22:04:30.967Z,97903.40
2023-02-14T22:06:59.252Z,97903.40
2023-02-14T22:09:27.253Z,97906.80
2023-02-14T22:11:57.676Z,97905.20
2023-02-14T22:14:29.313Z,97900.40
2023-02-14T22:16:57.351Z,97903.80
2023-02-14T22:19:26.036Z,97904.40
2023-02-14T22:21:54.077Z,97904.60
2023-02-14T22:24:22.060Z,97905.00
2023-02-14T22:26:50.120Z,97906.40
2023-02-14T22:29:18.134Z,97909.00
2023-02-14T22:31:46.606Z,97904.60
2023-02-14T22:34:17.845Z,97899.20
2023-02-14T22:36:46.465Z,97900.20
2023-02-14T22:39:15.906Z,97901.60
2023-02-14T22:41:44.441Z,97905.60
2023-02-14T22:44:12.854Z,97901.40
2023-02-14T22:46:41.188Z,97898.00
2023-02-14T22:49:09.544Z,97895.40
2023-02-14T22:51:38.920Z,97901.40
2023-02-14T22:54:14.959Z,97900.20
2023-02-14T22:56:44.496Z,97904.60
2023-02-14T22:59:19.195Z,97903.40
2023-02-14T23:01:47.713Z,97902.20
2023-02-14T23:04:16.282Z,97902.80
2023-02-14T23:06:44.399Z,97898.60
2023-02-14T23:09:12.661Z,97900.80
2023-02-14T23:11:41.478Z,97900.60
2023-02-14T23:14:31.995Z,97900.00
2023-02-14T23:17:18.647Z,97896.20
2023-02-14T23:20:05.478Z,97894.00
2023-02-14T23:22:33.612Z,97895.40
2023-02-14T23:25:03.675Z,97893.00
2023-02-14T23:27:37.650Z,97895.60
2023-02-14T23:30:07.164Z,97899.40
2023-02-14T23:32:35.738Z,97896.40
2023-02-14T23:35:03.887Z,97895.60
2023-02-14T23:37:31.858Z,97898.60
2023-02-14T23:39:59.917Z,97890.60
2023-02-14T23:42:28.338Z,97888.40
2023-02-14T23:45:16.426Z,97897.20
2023-02-14T23:47:44.521Z,97900.80
2023-02-14T23:50:12.582Z,97904.20
2023-02-14T23:52:41.883Z,97913.20
2023-02-14T23:55:10.101Z,97914.20
2023-02-14T23:57:38.261Z,97902.60
